sensor_id;sensor_type;location;lat;lon;timestamp;temperature;humidity
24686;DHT22;12804;51.176;4.452;2022-09-27T00:00:28;11.10;99.90
24686;DHT22;12804;51.176;4.452;2022-09-27T00:02:54;11.10;99.90
24686;DHT22;12804;51.176;4.452;2022-09-27T00:05:20;11.10;99.90
24686;DHT22;12804;51.176;4.452;2022-09-27T00:07:46;11.10;99.90
24686;DHT22;12804;51.176;4.452;2022-09-27T00:10:11;11.10;99.90
24686;DHT22;12804;51.176;4.452;2022-09-27T00:12:38;11.10;99.90
24686;DHT22;12804;51.176;4.452;2022-09-27T00:15:06;11.00;99.90
24686;DHT22;12804;51.176;4.452;2022-09-27T00:17:32;11.00;99.90
24686;DHT22;12804;51.176;4.452;2022-09-27T00:19:59;11.00;99.90
24686;DHT22;12804;51.176;4.452;2022-09-27T00:22:25;11.00;99.90
24686;DHT22;12804;51.176;4.452;2022-09-27T00:24:51;11.00;99.90
24686;DHT22;12804;51.176;4.452;2022-09-27T00:27:18;10.90;99.90
24686;DHT22;12804;51.176;4.452;2022-09-27T00:29:44;10.90;99.90
24686;DHT22;12804;51.176;4.452;2022-09-27T00:32:11;11.00;99.90
24686;DHT22;12804;51.176;4.452;2022-09-27T00:34:38;11.00;99.90
24686;DHT22;12804;51.176;4.452;2022-09-27T00:37:03;11.10;99.90
24686;DHT22;12804;51.176;4.452;2022-09-27T00:39:30;11.10;99.90
24686;DHT22;12804;51.176;4.452;2022-09-27T00:41:56;11.00;99.90
24686;DHT22;12804;51.176;4.452;2022-09-27T00:47:31;11.00;99.90
24686;DHT22;12804;51.176;4.452;2022-09-27T00:50:06;11.00;99.90
24686;DHT22;12804;51.176;4.452;2022-09-27T00:52:54;10.80;99.90
24686;DHT22;12804;51.176;4.452;2022-09-27T00:55:27;10.80;99.90
24686;DHT22;12804;51.176;4.452;2022-09-27T00:57:54;10.80;99.90
24686;DHT22;12804;51.176;4.452;2022-09-27T01:00:21;10.70;99.90
24686;DHT22;12804;51.176;4.452;2022-09-27T01:02:49;10.70;99.90
24686;DHT22;12804;51.176;4.452;2022-09-27T01:05:18;10.60;99.90
24686;DHT22;12804;51.176;4.452;2022-09-27T01:07:45;10.60;99.90
24686;DHT22;12804;51.176;4.452;2022-09-27T01:10:12;10.60;99.90
24686;DHT22;12804;51.176;4.452;2022-09-27T01:13:27;10.60;99.90
24686;DHT22;12804;51.176;4.452;2022-09-27T01:21:41;10.50;99.90
24686;DHT22;12804;51.176;4.452;2022-09-27T01:24:24;10.60;99.90
24686;DHT22;12804;51.176;4.452;2022-09-27T01:32:17;10.50;99.90
24686;DHT22;12804;51.176;4.452;2022-09-27T01:35:06;10.40;99.90
24686;DHT22;12804;51.176;4.452;2022-09-27T01:44:02;10.30;99.90
24686;DHT22;12804;51.176;4.452;2022-09-27T01:46:46;10.20;99.90
24686;DHT22;12804;51.176;4.452;2022-09-27T01:49:52;10.20;99.90
24686;DHT22;12804;51.176;4.452;2022-09-27T01:52:22;10.20;99.90
24686;DHT22;12804;51.176;4.452;2022-09-27T01:54:54;10.20;99.90
24686;DHT22;12804;51.176;4.452;2022-09-27T01:57:39;10.10;99.90
24686;DHT22;12804;51.176;4.452;2022-09-27T02:00:11;10.10;99.90
24686;DHT22;12804;51.176;4.452;2022-09-27T02:03:05;10.10;99.90
24686;DHT22;12804;51.176;4.452;2022-09-27T02:05:39;10.10;99.90
24686;DHT22;12804;51.176;4.452;2022-09-27T02:11:21;10.10;99.90
24686;DHT22;12804;51.176;4.452;2022-09-27T02:14:28;10.10;99.90
24686;DHT22;12804;51.176;4.452;2022-09-27T02:24:54;9.90;99.90
24686;DHT22;12804;51.176;4.452;2022-09-27T02:27:33;9.80;99.90
24686;DHT22;12804;51.176;4.452;2022-09-27T02:30:07;9.80;99.90
24686;DHT22;12804;51.176;4.452;2022-09-27T02:32:35;9.80;99.90
24686;DHT22;12804;51.176;4.452;2022-09-27T02:35:07;9.70;99.90
24686;DHT22;12804;51.176;4.452;2022-09-27T02:37:34;9.80;99.90
24686;DHT22;12804;51.176;4.452;2022-09-27T02:40:00;9.70;99.90
24686;DHT22;12804;51.176;4.452;2022-09-27T02:42:29;9.70;99.90
24686;DHT22;12804;51.176;4.452;2022-09-27T02:44:56;9.70;99.90
24686;DHT22;12804;51.176;4.452;2022-09-27T02:50:50;9.70;99.90
24686;DHT22;12804;51.176;4.452;2022-09-27T02:54:09;9.70;99.90
24686;DHT22;12804;51.176;4.452;2022-09-27T03:00:32;9.70;99.90
24686;DHT22;12804;51.176;4.452;2022-09-27T03:03:47;9.80;99.90
24686;DHT22;12804;51.176;4.452;2022-09-27T03:06:17;9.80;99.90
24686;DHT22;12804;51.176;4.452;2022-09-27T03:08:44;9.70;99.90
24686;DHT22;12804;51.176;4.452;2022-09-27T03:11:10;9.70;99.90
24686;DHT22;12804;51.176;4.452;2022-09-27T03:13:36;9.70;99.90
24686;DHT22;12804;51.176;4.452;2022-09-27T03:16:06;9.70;99.90
24686;DHT22;12804;51.176;4.452;2022-09-27T03:18:54;9.70;99.90
24686;DHT22;12804;51.176;4.452;2022-09-27T03:21:40;9.60;99.90
24686;DHT22;12804;51.176;4.452;2022-09-27T03:24:07;9.50;99.90
24686;DHT22;12804;51.176;4.452;2022-09-27T03:26:33;9.40;99.90
24686;DHT22;12804;51.176;4.452;2022-09-27T03:28:59;9.40;99.90
24686;DHT22;12804;51.176;4.452;2022-09-27T03:31:25;9.50;99.90
24686;DHT22;12804;51.176;4.452;2022-09-27T03:34:11;9.50;99.90
24686;DHT22;12804;51.176;4.452;2022-09-27T03:36:37;9.60;99.90
24686;DHT22;12804;51.176;4.452;2022-09-27T03:39:03;9.60;99.90
24686;DHT22;12804;51.176;4.452;2022-09-27T03:41:29;9.60;99.90
24686;DHT22;12804;51.176;4.452;2022-09-27T03:43:54;9.60;99.90
24686;DHT22;12804;51.176;4.452;2022-09-27T03:46:25;9.60;99.90
24686;DHT22;12804;51.176;4.452;2022-09-27T03:48:51;9.60;99.90
24686;DHT22;12804;51.176;4.452;2022-09-27T03:51:17;9.70;99.90
24686;DHT22;12804;51.176;4.452;2022-09-27T03:53:43;9.80;99.90
24686;DHT22;12804;51.176;4.452;2022-09-27T03:56:09;9.80;99.90
24686;DHT22;12804;51.176;4.452;2022-09-27T03:58:35;9.80;99.90
24686;DHT22;12804;51.176;4.452;2022-09-27T04:01:01;9.80;99.90
24686;DHT22;12804;51.176;4.452;2022-09-27T04:03:29;9.70;99.90
24686;DHT22;12804;51.176;4.452;2022-09-27T04:06:06;9.60;99.90
24686;DHT22;12804;51.176;4.452;2022-09-27T04:08:39;9.50;99.90
24686;DHT22;12804;51.176;4.452;2022-09-27T04:11:05;9.70;99.90
24686;DHT22;12804;51.176;4.452;2022-09-27T04:13:32;9.60;99.90
24686;DHT22;12804;51.176;4.452;2022-09-27T04:15:58;9.60;99.90
24686;DHT22;12804;51.176;4.452;2022-09-27T04:18:43;9.70;99.90
24686;DHT22;12804;51.176;4.452;2022-09-27T04:21:35;9.80;99.90
24686;DHT22;12804;51.176;4.452;2022-09-27T04:24:02;9.90;99.90
24686;DHT22;12804;51.176;4.452;2022-09-27T04:26:30;9.80;99.90
24686;DHT22;12804;51.176;4.452;2022-09-27T04:29:05;9.70;99.90
24686;DHT22;12804;51.176;4.452;2022-09-27T04:31:36;9.70;99.90
24686;DHT22;12804;51.176;4.452;2022-09-27T04:34:21;9.70;99.90
24686;DHT22;12804;51.176;4.452;2022-09-27T04:37:07;9.70;99.90
24686;DHT22;12804;51.176;4.452;2022-09-27T04:39:38;9.70;99.90
24686;DHT22;12804;51.176;4.452;2022-09-27T04:42:04;9.70;99.90
24686;DHT22;12804;51.176;4.452;2022-09-27T04:44:30;9.70;99.90
24686;DHT22;12804;51.176;4.452;2022-09-27T04:46:56;9.80;99.90
24686;DHT22;12804;51.176;4.452;2022-09-27T04:49:22;9.80;99.90
24686;DHT22;12804;51.176;4.452;2022-09-27T04:51:48;9.70;99.90
24686;DHT22;12804;51.176;4.452;2022-09-27T04:54:14;9.60;99.90
24686;DHT22;12804;51.176;4.452;2022-09-27T04:56:58;9.50;99.90
24686;DHT22;12804;51.176;4.452;2022-09-27T04:59:24;9.40;99.90
24686;DHT22;12804;51.176;4.452;2022-09-27T05:01:50;9.40;99.90
24686;DHT22;12804;51.176;4.452;2022-09-27T05:04:35;9.30;99.90
24686;DHT22;12804;51.176;4.452;2022-09-27T05:07:03;9.40;99.90
24686;DHT22;12804;51.176;4.452;2022-09-27T05:09:38;9.30;99.90
24686;DHT22;12804;51.176;4.452;2022-09-27T05:12:04;9.30;99.90
24686;DHT22;12804;51.176;4.452;2022-09-27T05:14:42;9.20;99.90
24686;DHT22;12804;51.176;4.452;2022-09-27T05:17:28;9.30;99.90
24686;DHT22;12804;51.176;4.452;2022-09-27T05:20:13;9.20;99.90
24686;DHT22;12804;51.176;4.452;2022-09-27T05:22:43;9.20;99.90
24686;DHT22;12804;51.176;4.452;2022-09-27T05:25:09;9.20;99.90
24686;DHT22;12804;51.176;4.452;2022-09-27T05:27:35;9.30;99.90
24686;DHT22;12804;51.176;4.452;2022-09-27T05:30:01;9.20;99.90
24686;DHT22;12804;51.176;4.452;2022-09-27T05:32:34;9.20;99.90
24686;DHT22;12804;51.176;4.452;2022-09-27T05:35:19;9.30;99.90
24686;DHT22;12804;51.176;4.452;2022-09-27T05:37:53;9.30;99.90
24686;DHT22;12804;51.176;4.452;2022-09-27T05:40:19;9.40;99.90
24686;DHT22;12804;51.176;4.452;2022-09-27T05:42:52;9.40;99.90
24686;DHT22;12804;51.176;4.452;2022-09-27T05:45:19;9.30;99.90
24686;DHT22;12804;51.176;4.452;2022-09-27T05:47:57;9.30;99.90
24686;DHT22;12804;51.176;4.452;2022-09-27T05:50:26;9.30;99.90
24686;DHT22;12804;51.176;4.452;2022-09-27T05:52:53;9.30;99.90
24686;DHT22;12804;51.176;4.452;2022-09-27T05:55:20;9.30;99.90
24686;DHT22;12804;51.176;4.452;2022-09-27T05:58:06;9.20;99.90
24686;DHT22;12804;51.176;4.452;2022-09-27T06:00:44;9.20;99.90
24686;DHT22;12804;51.176;4.452;2022-09-27T06:03:45;9.20;99.90
24686;DHT22;12804;51.176;4.452;2022-09-27T06:06:30;9.20;99.90
24686;DHT22;12804;51.176;4.452;2022-09-27T06:08:58;9.30;99.90
24686;DHT22;12804;51.176;4.452;2022-09-27T06:11:26;9.30;99.90
24686;DHT22;12804;51.176;4.452;2022-09-27T06:13:52;9.40;99.90
24686;DHT22;12804;51.176;4.452;2022-09-27T06:16:18;9.40;99.90
24686;DHT22;12804;51.176;4.452;2022-09-27T06:18:44;9.30;99.90
24686;DHT22;12804;51.176;4.452;2022-09-27T06:21:10;9.30;99.90
24686;DHT22;12804;51.176;4.452;2022-09-27T06:23:37;9.40;99.90
24686;DHT22;12804;51.176;4.452;2022-09-27T06:26:16;9.40;99.90
24686;DHT22;12804;51.176;4.452;2022-09-27T06:28:58;9.50;99.90
24686;DHT22;12804;51.176;4.452;2022-09-27T06:31:24;9.40;99.90
24686;DHT22;12804;51.176;4.452;2022-09-27T06:33:59;9.40;99.90
24686;DHT22;12804;51.176;4.452;2022-09-27T06:36:25;9.60;99.90
24686;DHT22;12804;51.176;4.452;2022-09-27T06:38:51;9.70;99.90
24686;DHT22;12804;51.176;4.452;2022-09-27T06:41:26;9.60;99.90
24686;DHT22;12804;51.176;4.452;2022-09-27T06:43:52;9.70;99.90
24686;DHT22;12804;51.176;4.452;2022-09-27T06:46:36;9.70;99.90
24686;DHT22;12804;51.176;4.452;2022-09-27T06:49:21;9.60;99.90
24686;DHT22;12804;51.176;4.452;2022-09-27T06:51:48;9.70;99.90
24686;DHT22;12804;51.176;4.452;2022-09-27T06:54:14;9.80;99.90
24686;DHT22;12804;51.176;4.452;2022-09-27T06:56:40;9.90;99.90
24686;DHT22;12804;51.176;4.452;2022-09-27T06:59:06;10.10;99.90
24686;DHT22;12804;51.176;4.452;2022-09-27T07:02:08;10.00;99.90
24686;DHT22;12804;51.176;4.452;2022-09-27T07:04:49;9.90;99.90
24686;DHT22;12804;51.176;4.452;2022-09-27T07:07:27;10.10;99.90
24686;DHT22;12804;51.176;4.452;2022-09-27T07:09:53;10.20;99.90
24686;DHT22;12804;51.176;4.452;2022-09-27T07:12:19;10.10;99.90
24686;DHT22;12804;51.176;4.452;2022-09-27T07:14:46;10.10;99.90
24686;DHT22;12804;51.176;4.452;2022-09-27T07:17:16;10.10;99.90
24686;DHT22;12804;51.176;4.452;2022-09-27T07:19:47;10.20;99.90
24686;DHT22;12804;51.176;4.452;2022-09-27T07:22:13;10.10;99.90
24686;DHT22;12804;51.176;4.452;2022-09-27T07:24:41;10.30;99.90
24686;DHT22;12804;51.176;4.452;2022-09-27T07:27:07;10.30;99.90
24686;DHT22;12804;51.176;4.452;2022-09-27T07:29:33;10.40;99.90
24686;DHT22;12804;51.176;4.452;2022-09-27T07:31:59;10.50;99.90
24686;DHT22;12804;51.176;4.452;2022-09-27T07:34:26;10.30;99.90
24686;DHT22;12804;51.176;4.452;2022-09-27T07:36:52;10.40;99.90
24686;DHT22;12804;51.176;4.452;2022-09-27T07:39:23;10.40;99.90
24686;DHT22;12804;51.176;4.452;2022-09-27T07:41:48;10.30;99.90
24686;DHT22;12804;51.176;4.452;2022-09-27T07:44:14;10.30;99.90
24686;DHT22;12804;51.176;4.452;2022-09-27T07:46:56;10.30;99.90
24686;DHT22;12804;51.176;4.452;2022-09-27T07:49:27;10.40;99.90
24686;DHT22;12804;51.176;4.452;2022-09-27T07:52:11;10.50;99.90
24686;DHT22;12804;51.176;4.452;2022-09-27T07:54:37;10.60;99.90
24686;DHT22;12804;51.176;4.452;2022-09-27T07:57:39;10.50;99.90
24686;DHT22;12804;51.176;4.452;2022-09-27T08:00:08;10.30;99.90
24686;DHT22;12804;51.176;4.452;2022-09-27T08:02:39;10.20;99.90
24686;DHT22;12804;51.176;4.452;2022-09-27T08:05:05;10.10;99.90
24686;DHT22;12804;51.176;4.452;2022-09-27T08:07:31;10.00;99.90
24686;DHT22;12804;51.176;4.452;2022-09-27T08:09:58;9.90;99.90
24686;DHT22;12804;51.176;4.452;2022-09-27T08:12:24;9.80;99.90
24686;DHT22;12804;51.176;4.452;2022-09-27T08:14:50;9.80;99.90
24686;DHT22;12804;51.176;4.452;2022-09-27T08:17:23;9.80;99.90
24686;DHT22;12804;51.176;4.452;2022-09-27T08:20:21;9.90;99.90
24686;DHT22;12804;51.176;4.452;2022-09-27T08:23:05;10.00;99.90
24686;DHT22;12804;51.176;4.452;2022-09-27T08:25:38;10.00;99.90
24686;DHT22;12804;51.176;4.452;2022-09-27T08:28:27;10.10;99.90
24686;DHT22;12804;51.176;4.452;2022-09-27T08:30:58;10.10;99.90
24686;DHT22;12804;51.176;4.452;2022-09-27T08:33:24;10.10;99.90
24686;DHT22;12804;51.176;4.452;2022-09-27T08:35:51;10.20;99.90
24686;DHT22;12804;51.176;4.452;2022-09-27T08:38:17;10.30;99.90
24686;DHT22;12804;51.176;4.452;2022-09-27T08:41:40;10.50;99.90
24686;DHT22;12804;51.176;4.452;2022-09-27T08:52:36;10.50;99.90
24686;DHT22;12804;51.176;4.452;2022-09-27T08:57:54;10.30;99.90
24686;DHT22;12804;51.176;4.452;2022-09-27T09:00:21;10.40;99.90
24686;DHT22;12804;51.176;4.452;2022-09-27T09:02:48;10.40;99.90
24686;DHT22;12804;51.176;4.452;2022-09-27T09:11:18;10.70;99.90
24686;DHT22;12804;51.176;4.452;2022-09-27T09:19:52;10.50;99.90
24686;DHT22;12804;51.176;4.452;2022-09-27T09:30:22;10.80;99.90
24686;DHT22;12804;51.176;4.452;2022-09-27T09:36:31;10.70;99.90
24686;DHT22;12804;51.176;4.452;2022-09-27T09:39:04;10.60;99.90
24686;DHT22;12804;51.176;4.452;2022-09-27T09:41:54;10.50;99.90
24686;DHT22;12804;51.176;4.452;2022-09-27T09:44:29;10.60;99.90
24686;DHT22;12804;51.176;4.452;2022-09-27T09:47:01;10.70;99.90
24686;DHT22;12804;51.176;4.452;2022-09-27T09:49:45;10.70;99.90
24686;DHT22;12804;51.176;4.452;2022-09-27T09:52:18;10.90;99.90
24686;DHT22;12804;51.176;4.452;2022-09-27T09:54:51;11.00;99.90
24686;DHT22;12804;51.176;4.452;2022-09-27T09:57:27;11.00;99.90
24686;DHT22;12804;51.176;4.452;2022-09-27T10:00:00;11.10;99.90
24686;DHT22;12804;51.176;4.452;2022-09-27T10:02:34;11.10;99.90
24686;DHT22;12804;51.176;4.452;2022-09-27T10:05:23;11.30;99.90
24686;DHT22;12804;51.176;4.452;2022-09-27T10:08:00;11.40;99.90
24686;DHT22;12804;51.176;4.452;2022-09-27T10:10:27;11.40;99.90
24686;DHT22;12804;51.176;4.452;2022-09-27T10:12:54;11.60;99.90
24686;DHT22;12804;51.176;4.452;2022-09-27T10:15:28;11.90;99.90
24686;DHT22;12804;51.176;4.452;2022-09-27T10:17:56;11.90;99.90
24686;DHT22;12804;51.176;4.452;2022-09-27T10:23:18;12.10;99.90
24686;DHT22;12804;51.176;4.452;2022-09-27T10:26:04;12.10;99.90
24686;DHT22;12804;51.176;4.452;2022-09-27T10:31:08;11.90;99.90
24686;DHT22;12804;51.176;4.452;2022-09-27T10:34:01;11.60;99.90
24686;DHT22;12804;51.176;4.452;2022-09-27T10:36:33;11.90;99.90
24686;DHT22;12804;51.176;4.452;2022-09-27T10:39:03;12.20;99.90
24686;DHT22;12804;51.176;4.452;2022-09-27T10:41:43;12.70;99.90
24686;DHT22;12804;51.176;4.452;2022-09-27T10:46:51;13.60;99.90
24686;DHT22;12804;51.176;4.452;2022-09-27T10:49:41;14.10;99.90
24686;DHT22;12804;51.176;4.452;2022-09-27T10:52:26;14.70;99.90
24686;DHT22;12804;51.176;4.452;2022-09-27T10:54:57;15.40;99.90
24686;DHT22;12804;51.176;4.452;2022-09-27T10:57:28;16.20;99.90
24686;DHT22;12804;51.176;4.452;2022-09-27T11:00:24;16.50;99.90
24686;DHT22;12804;51.176;4.452;2022-09-27T11:02:53;16.50;99.90
24686;DHT22;12804;51.176;4.452;2022-09-27T11:07:54;15.20;99.90
24686;DHT22;12804;51.176;4.452;2022-09-27T11:10:35;15.50;99.90
24686;DHT22;12804;51.176;4.452;2022-09-27T11:24:42;15.20;99.90
24686;DHT22;12804;51.176;4.452;2022-09-27T11:30:20;15.20;99.90
24686;DHT22;12804;51.176;4.452;2022-09-27T11:33:35;14.70;99.90
24686;DHT22;12804;51.176;4.452;2022-09-27T11:36:42;14.70;99.90
24686;DHT22;12804;51.176;4.452;2022-09-27T11:42:11;15.00;99.90
24686;DHT22;12804;51.176;4.452;2022-09-27T11:51:23;15.80;99.90
24686;DHT22;12804;51.176;4.452;2022-09-27T12:11:11;11.40;99.90
24686;DHT22;12804;51.176;4.452;2022-09-27T12:13:44;11.50;99.90
24686;DHT22;12804;51.176;4.452;2022-09-27T12:16:15;11.50;99.90
24686;DHT22;12804;51.176;4.452;2022-09-27T12:18:42;11.60;99.90
24686;DHT22;12804;51.176;4.452;2022-09-27T12:21:29;11.80;99.90
24686;DHT22;12804;51.176;4.452;2022-09-27T12:23:56;12.30;99.90
24686;DHT22;12804;51.176;4.452;2022-09-27T12:26:40;12.70;99.90
24686;DHT22;12804;51.176;4.452;2022-09-27T12:29:14;13.00;99.90
24686;DHT22;12804;51.176;4.452;2022-09-27T12:32:21;13.30;99.90
24686;DHT22;12804;51.176;4.452;2022-09-27T12:37:48;13.40;99.90
24686;DHT22;12804;51.176;4.452;2022-09-27T12:40:32;13.30;99.90
24686;DHT22;12804;51.176;4.452;2022-09-27T12:43:23;13.70;99.90
24686;DHT22;12804;51.176;4.452;2022-09-27T12:49:15;13.80;99.90
24686;DHT22;12804;51.176;4.452;2022-09-27T12:51:55;13.50;99.90
24686;DHT22;12804;51.176;4.452;2022-09-27T13:11:47;13.90;99.90
24686;DHT22;12804;51.176;4.452;2022-09-27T13:14:22;14.40;99.90
24686;DHT22;12804;51.176;4.452;2022-09-27T13:16:49;14.40;99.90
24686;DHT22;12804;51.176;4.452;2022-09-27T13:19:38;14.00;99.90
24686;DHT22;12804;51.176;4.452;2022-09-27T13:22:35;13.50;99.90
24686;DHT22;12804;51.176;4.452;2022-09-27T13:34:42;12.90;99.90
24686;DHT22;12804;51.176;4.452;2022-09-27T13:37:40;12.80;99.90
24686;DHT22;12804;51.176;4.452;2022-09-27T13:40:19;13.00;99.90
24686;DHT22;12804;51.176;4.452;2022-09-27T13:43:15;13.30;99.90
24686;DHT22;12804;51.176;4.452;2022-09-27T13:45:58;13.40;99.90
24686;DHT22;12804;51.176;4.452;2022-09-27T13:51:22;13.70;99.90
24686;DHT22;12804;51.176;4.452;2022-09-27T13:54:00;12.90;99.90
24686;DHT22;12804;51.176;4.452;2022-09-27T13:59:19;12.60;99.90
24686;DHT22;12804;51.176;4.452;2022-09-27T14:02:28;12.30;99.90
24686;DHT22;12804;51.176;4.452;2022-09-27T14:04:57;11.80;99.90
24686;DHT22;12804;51.176;4.452;2022-09-27T14:07:29;11.50;99.90
24686;DHT22;12804;51.176;4.452;2022-09-27T14:10:02;11.50;99.90
24686;DHT22;12804;51.176;4.452;2022-09-27T14:12:38;11.20;99.90
24686;DHT22;12804;51.176;4.452;2022-09-27T14:15:08;11.00;99.90
24686;DHT22;12804;51.176;4.452;2022-09-27T14:17:41;11.00;99.90
24686;DHT22;12804;51.176;4.452;2022-09-27T14:20:36;10.80;99.90
24686;DHT22;12804;51.176;4.452;2022-09-27T14:23:11;10.60;99.90
24686;DHT22;12804;51.176;4.452;2022-09-27T14:25:44;10.70;99.90
24686;DHT22;12804;51.176;4.452;2022-09-27T14:31:13;11.00;99.90
24686;DHT22;12804;51.176;4.452;2022-09-27T14:34:04;11.20;99.90
24686;DHT22;12804;51.176;4.452;2022-09-27T14:36:33;11.50;99.90
24686;DHT22;12804;51.176;4.452;2022-09-27T14:39:22;11.60;99.90
24686;DHT22;12804;51.176;4.452;2022-09-27T14:41:51;11.60;99.90
24686;DHT22;12804;51.176;4.452;2022-09-27T14:44:18;11.60;99.90
24686;DHT22;12804;51.176;4.452;2022-09-27T14:46:45;11.60;99.90
24686;DHT22;12804;51.176;4.452;2022-09-27T14:51:50;11.50;99.90
24686;DHT22;12804;51.176;4.452;2022-09-27T14:54:22;11.70;99.90
24686;DHT22;12804;51.176;4.452;2022-09-27T14:56:50;11.70;99.90
24686;DHT22;12804;51.176;4.452;2022-09-27T14:59:23;11.80;99.90
24686;DHT22;12804;51.176;4.452;2022-09-27T15:01:53;11.90;99.90
24686;DHT22;12804;51.176;4.452;2022-09-27T15:04:20;12.00;99.90
24686;DHT22;12804;51.176;4.452;2022-09-27T15:06:48;12.10;99.90
24686;DHT22;12804;51.176;4.452;2022-09-27T15:09:15;11.80;99.90
24686;DHT22;12804;51.176;4.452;2022-09-27T15:11:43;11.90;99.90
24686;DHT22;12804;51.176;4.452;2022-09-27T15:14:14;11.70;99.90
24686;DHT22;12804;51.176;4.452;2022-09-27T15:16:40;11.10;99.90
24686;DHT22;12804;51.176;4.452;2022-09-27T15:21:50;11.30;99.90
24686;DHT22;12804;51.176;4.452;2022-09-27T15:24:38;11.30;99.90
24686;DHT22;12804;51.176;4.452;2022-09-27T15:27:16;11.50;99.90
24686;DHT22;12804;51.176;4.452;2022-09-27T15:29:48;11.40;99.90
24686;DHT22;12804;51.176;4.452;2022-09-27T15:32:17;11.50;99.90
24686;DHT22;12804;51.176;4.452;2022-09-27T15:34:44;11.70;99.90
24686;DHT22;12804;51.176;4.452;2022-09-27T15:39:53;11.90;99.90
24686;DHT22;12804;51.176;4.452;2022-09-27T15:42:19;12.10;99.90
24686;DHT22;12804;51.176;4.452;2022-09-27T15:44:50;12.10;99.90
24686;DHT22;12804;51.176;4.452;2022-09-27T15:52:42;11.80;99.90
24686;DHT22;12804;51.176;4.452;2022-09-27T15:55:12;11.60;99.90
24686;DHT22;12804;51.176;4.452;2022-09-27T15:57:39;11.60;99.90
24686;DHT22;12804;51.176;4.452;2022-09-27T16:00:06;11.50;99.90
24686;DHT22;12804;51.176;4.452;2022-09-27T16:02:37;11.60;99.90
24686;DHT22;12804;51.176;4.452;2022-09-27T16:05:03;11.70;99.90
24686;DHT22;12804;51.176;4.452;2022-09-27T16:07:29;11.80;99.90
24686;DHT22;12804;51.176;4.452;2022-09-27T16:09:55;12.00;99.90
24686;DHT22;12804;51.176;4.452;2022-09-27T16:12:21;12.10;99.90
24686;DHT22;12804;51.176;4.452;2022-09-27T16:14:47;12.20;99.90
24686;DHT22;12804;51.176;4.452;2022-09-27T16:17:13;12.30;99.90
24686;DHT22;12804;51.176;4.452;2022-09-27T16:19:39;12.40;99.90
24686;DHT22;12804;51.176;4.452;2022-09-27T16:22:05;12.30;99.90
24686;DHT22;12804;51.176;4.452;2022-09-27T16:24:31;12.30;99.90
24686;DHT22;12804;51.176;4.452;2022-09-27T16:26:57;12.30;99.90
24686;DHT22;12804;51.176;4.452;2022-09-27T16:29:23;12.20;99.90
24686;DHT22;12804;51.176;4.452;2022-09-27T16:31:49;12.20;99.90
24686;DHT22;12804;51.176;4.452;2022-09-27T16:34:15;12.20;99.90
24686;DHT22;12804;51.176;4.452;2022-09-27T16:36:42;12.20;99.90
24686;DHT22;12804;51.176;4.452;2022-09-27T16:39:11;12.20;99.90
24686;DHT22;12804;51.176;4.452;2022-09-27T16:41:38;12.10;99.90
24686;DHT22;12804;51.176;4.452;2022-09-27T16:44:12;12.00;99.90
24686;DHT22;12804;51.176;4.452;2022-09-27T16:46:42;11.90;99.90
24686;DHT22;12804;51.176;4.452;2022-09-27T16:49:12;12.00;99.90
24686;DHT22;12804;51.176;4.452;2022-09-27T16:51:57;12.10;99.90
24686;DHT22;12804;51.176;4.452;2022-09-27T16:54:27;12.00;99.90
24686;DHT22;12804;51.176;4.452;2022-09-27T16:56:55;11.80;99.90
24686;DHT22;12804;51.176;4.452;2022-09-27T16:59:21;11.80;99.90
24686;DHT22;12804;51.176;4.452;2022-09-27T17:01:50;11.80;99.90
24686;DHT22;12804;51.176;4.452;2022-09-27T17:04:15;11.80;99.90
24686;DHT22;12804;51.176;4.452;2022-09-27T17:06:41;11.90;99.90
24686;DHT22;12804;51.176;4.452;2022-09-27T17:09:07;11.80;99.90
24686;DHT22;12804;51.176;4.452;2022-09-27T17:11:34;11.60;99.90
24686;DHT22;12804;51.176;4.452;2022-09-27T17:13:59;11.40;99.90
24686;DHT22;12804;51.176;4.452;2022-09-27T17:16:26;11.30;99.90
24686;DHT22;12804;51.176;4.452;2022-09-27T17:18:53;11.30;99.90
24686;DHT22;12804;51.176;4.452;2022-09-27T17:21:19;11.30;99.90
24686;DHT22;12804;51.176;4.452;2022-09-27T17:23:45;11.30;99.90
24686;DHT22;12804;51.176;4.452;2022-09-27T17:26:17;11.30;99.90
24686;DHT22;12804;51.176;4.452;2022-09-27T17:28:44;11.30;99.90
24686;DHT22;12804;51.176;4.452;2022-09-27T17:31:11;11.30;99.90
24686;DHT22;12804;51.176;4.452;2022-09-27T17:33:45;11.30;99.90
24686;DHT22;12804;51.176;4.452;2022-09-27T17:36:23;11.20;99.90
24686;DHT22;12804;51.176;4.452;2022-09-27T17:38:50;11.20;99.90
24686;DHT22;12804;51.176;4.452;2022-09-27T17:41:23;11.30;99.90
24686;DHT22;12804;51.176;4.452;2022-09-27T17:43:55;11.30;99.90
24686;DHT22;12804;51.176;4.452;2022-09-27T17:46:28;11.30;99.90
24686;DHT22;12804;51.176;4.452;2022-09-27T17:48:54;11.30;99.90
24686;DHT22;12804;51.176;4.452;2022-09-27T17:51:40;11.40;99.90
24686;DHT22;12804;51.176;4.452;2022-09-27T17:54:07;11.50;99.90
24686;DHT22;12804;51.176;4.452;2022-09-27T17:56:41;11.60;99.90
24686;DHT22;12804;51.176;4.452;2022-09-27T17:59:08;11.70;99.90
24686;DHT22;12804;51.176;4.452;2022-09-27T18:01:35;11.70;99.90
24686;DHT22;12804;51.176;4.452;2022-09-27T18:04:05;11.60;99.90
24686;DHT22;12804;51.176;4.452;2022-09-27T18:06:37;11.50;99.90
24686;DHT22;12804;51.176;4.452;2022-09-27T18:09:05;11.40;99.90
24686;DHT22;12804;51.176;4.452;2022-09-27T18:11:33;11.30;99.90
24686;DHT22;12804;51.176;4.452;2022-09-27T18:14:00;11.40;99.90
24686;DHT22;12804;51.176;4.452;2022-09-27T18:16:27;11.30;99.90
24686;DHT22;12804;51.176;4.452;2022-09-27T18:18:58;11.40;99.90
24686;DHT22;12804;51.176;4.452;2022-09-27T18:21:25;11.50;99.90
24686;DHT22;12804;51.176;4.452;2022-09-27T18:23:53;11.50;99.90
24686;DHT22;12804;51.176;4.452;2022-09-27T18:26:21;11.60;99.90
24686;DHT22;12804;51.176;4.452;2022-09-27T18:28:49;11.60;99.90
24686;DHT22;12804;51.176;4.452;2022-09-27T18:31:18;11.70;99.90
24686;DHT22;12804;51.176;4.452;2022-09-27T18:33:44;11.80;99.90
24686;DHT22;12804;51.176;4.452;2022-09-27T18:36:22;11.70;99.90
24686;DHT22;12804;51.176;4.452;2022-09-27T18:38:56;11.80;99.90
24686;DHT22;12804;51.176;4.452;2022-09-27T18:41:23;11.60;99.90
24686;DHT22;12804;51.176;4.452;2022-09-27T18:43:55;11.50;99.90
24686;DHT22;12804;51.176;4.452;2022-09-27T18:46:27;11.20;99.90
24686;DHT22;12804;51.176;4.452;2022-09-27T18:48:53;11.10;99.90
24686;DHT22;12804;51.176;4.452;2022-09-27T18:51:22;11.00;99.90
24686;DHT22;12804;51.176;4.452;2022-09-27T18:53:56;10.80;99.90
24686;DHT22;12804;51.176;4.452;2022-09-27T18:56:23;10.70;99.90
24686;DHT22;12804;51.176;4.452;2022-09-27T18:58:49;10.80;99.90
24686;DHT22;12804;51.176;4.452;2022-09-27T19:01:17;10.80;99.90
24686;DHT22;12804;51.176;4.452;2022-09-27T19:03:43;10.70;99.90
24686;DHT22;12804;51.176;4.452;2022-09-27T19:06:13;10.80;99.90
24686;DHT22;12804;51.176;4.452;2022-09-27T19:08:39;10.60;99.90
24686;DHT22;12804;51.176;4.452;2022-09-27T19:11:13;10.50;99.90